Airfield :
LOGIN :

Register | Disclaimer

   EN    FR    IT 

 










Legend :    VFR   Marginal VFR   IFR   Intensive IFR   Very Intensive IFR
Visi :
Ceiling :
>= 8 km
>= 3000ft
5 to 8 km
1000 to 3000 ft
1500m to 5 km
500 to 1000 ft
800 to 1500m
200 to 500 ft
< 800m
< 200 ft
Symbols :   Thunderstorms  Fog  Heavy snow  Heavy precipitations  Wind > 20 kt
SIGMETs :     Misc.  Thunderstorms  Icing  Turbulence  Mountain Waves  Volcanic Ashes







- Airport Elevation : 12 ft
- IATA code : BCN


LEBL - Barcelone

CURRENT METAR :
  • 151230Z 06012KT 9999 VCTS SCT010 FEW020CB BKN035 19/17 Q1020 TEMPO 4000 TSRA

EXPIRED METARs :
  • 151200Z 08013KT 9999 VCTS SCT010 FEW015CB BKN040 19/17 Q1020 TEMPO 4000 TSRA
  • 151130Z 09011KT 9999 VCTS SCT012 FEW015CB BKN044 20/18 Q1020 TEMPO 4000 TSRA
  • 151100Z 09009KT 9999 VCTS BKN011 FEW015CB 19/17 Q1020 TEMPO 4000 TSRA
  • 151030Z 11010KT 9999 VCTS SCT012 FEW015CB 20/17 Q1020 RETS TEMPO 4000 TSRA
  • 151000Z 10012KT 6000 TS SCT007 BKN013 FEW015CB 19/18 Q1020 TEMPO 4000 TSRA

TAF TAF LEBL
Valid from the 15 at 12:00 until the 16 at 12:00 UTC


151100Z 1512/1612 05007KT 9999 SCT009 TX19/1512Z TN13/1606Z
TEMPO 1512/1522 VRB09KT 3000 SHRA BKN010 FEW015TCU
PROB30
TEMPO 1512/1516 2000 TSRA BKN010 FEW015CB
No reported NOTAMs for that airfield.
1 SIGMET reported for the Barcelona FIR (LECB) :
 
Embedded thunderstorms
LECB SIGMET 10 VALID 151100/151300 LEVA
LECB BARCELONA FIR/UIR EMBD TS OBS AT 1035Z WI N4209 E00225 - N4021 W00028 - N3853 W00118 - N3823 W00123 - N3853 E00018 - N3941 E00007 - N4148 E00317 - N4209 E00225 TOP FL330 STNR NC=



MET'MAP, your aeronautical weather chart ! - Copyright ORBIFLY December 2007 - Disclaimer

ORBIFLY MET'MAP TEAM :

Programming & Development : Alexandra Zaïnal
Concept & Development : Baudouin d'Aumeries
Co-Development & Prog : Marc-Olivier Méhu
Technical & hardware support : Manuel Goepfert

Contact : metmap@orbifly.com




SOURCES & CREDITS :

   NOAA